sensor_id;sensor_type;location;lat;lon;timestamp;pressure;altitude;pressure_sealevel;temperature;humidity
74680;BME280;63211;48.548;2.704;2023-08-07T00:01:33;101268.69;;;20.31;59.43
74680;BME280;63211;48.548;2.704;2023-08-07T00:04:01;101264.06;;;20.31;59.43
74680;BME280;63211;48.548;2.704;2023-08-07T00:06:27;101264.28;;;20.30;59.60
74680;BME280;63211;48.548;2.704;2023-08-07T00:08:54;101264.06;;;20.31;59.48
74680;BME280;63211;48.548;2.704;2023-08-07T00:11:20;101253.78;;;20.27;59.74
74680;BME280;63211;48.548;2.704;2023-08-07T00:13:47;101257.13;;;20.29;59.61
74680;BME280;63211;48.548;2.704;2023-08-07T00:16:14;101257.13;;;20.29;59.57
74680;BME280;63211;48.548;2.704;2023-08-07T00:18:40;101252.50;;;20.29;59.51
74680;BME280;63211;48.548;2.704;2023-08-07T00:21:08;101261.75;;;20.28;59.52
74680;BME280;63211;48.548;2.704;2023-08-07T00:23:35;101261.75;;;20.28;59.56
74680;BME280;63211;48.548;2.704;2023-08-07T00:26:01;101250.25;;;20.19;59.63
74680;BME280;63211;48.548;2.704;2023-08-07T00:28:28;101258.19;;;20.28;59.74
74680;BME280;63211;48.548;2.704;2023-08-07T00:30:55;101258.03;;;20.22;59.95
74680;BME280;63211;48.548;2.704;2023-08-07T00:33:21;101261.16;;;20.26;59.84
74680;BME280;63211;48.548;2.704;2023-08-07T00:35:48;101269.34;;;20.26;59.65
74680;BME280;63211;48.548;2.704;2023-08-07T00:38:16;101274.59;;;20.28;59.61
74680;BME280;63211;48.548;2.704;2023-08-07T00:40:42;101268.50;;;20.25;59.66
74680;BME280;63211;48.548;2.704;2023-08-07T00:43:09;101271.88;;;20.28;59.40
74680;BME280;63211;48.548;2.704;2023-08-07T00:45:38;101259.47;;;20.25;59.57
74680;BME280;63211;48.548;2.704;2023-08-07T00:48:07;101248.16;;;20.21;59.65
74680;BME280;63211;48.548;2.704;2023-08-07T00:50:34;101256.53;;;20.27;59.59
74680;BME280;63211;48.548;2.704;2023-08-07T00:53:01;101251.28;;;20.25;59.81
74680;BME280;63211;48.548;2.704;2023-08-07T00:55:29;101246.69;;;20.19;59.62
74680;BME280;63211;48.548;2.704;2023-08-07T00:57:56;101257.56;;;20.25;59.85
74680;BME280;63211;48.548;2.704;2023-08-07T01:00:24;101247.69;;;20.24;59.76
74680;BME280;63211;48.548;2.704;2023-08-07T01:02:52;101244.34;;;20.22;59.84
74680;BME280;63211;48.548;2.704;2023-08-07T01:05:20;101243.06;;;20.25;59.83
74680;BME280;63211;48.548;2.704;2023-08-07T01:07:47;101240.34;;;20.25;59.66
74680;BME280;63211;48.548;2.704;2023-08-07T01:10:16;101237.03;;;20.16;59.77
74680;BME280;63211;48.548;2.704;2023-08-07T01:12:51;101242.44;;;20.23;59.76
74680;BME280;63211;48.548;2.704;2023-08-07T01:15:22;101239.94;;;20.21;59.71
74680;BME280;63211;48.548;2.704;2023-08-07T01:17:52;101243.50;;;20.22;59.75
74680;BME280;63211;48.548;2.704;2023-08-07T01:20:20;101249.22;;;20.20;59.99
74680;BME280;63211;48.548;2.704;2023-08-07T01:22:48;101253.38;;;20.23;59.96
74680;BME280;63211;48.548;2.704;2023-08-07T01:25:15;101252.78;;;20.21;59.86
74680;BME280;63211;48.548;2.704;2023-08-07T01:27:46;101247.53;;;20.19;59.81
74680;BME280;63211;48.548;2.704;2023-08-07T01:30:21;101253.63;;;20.21;59.89
74680;BME280;63211;48.548;2.704;2023-08-07T01:32:58;101244.78;;;20.19;59.85
74680;BME280;63211;48.548;2.704;2023-08-07T01:35:27;101242.91;;;20.20;59.79
74680;BME280;63211;48.548;2.704;2023-08-07T01:37:57;101246.25;;;20.22;60.03
74680;BME280;63211;48.548;2.704;2023-08-07T01:40:25;101246.69;;;20.19;59.88
74680;BME280;63211;48.548;2.704;2023-08-07T01:42:53;101242.91;;;20.20;59.89
74680;BME280;63211;48.548;2.704;2023-08-07T01:45:24;101235.13;;;20.17;59.96
74680;BME280;63211;48.548;2.704;2023-08-07T01:47:50;101248.16;;;20.21;60.01
74680;BME280;63211;48.548;2.704;2023-08-07T01:50:18;101249.22;;;20.20;60.08
74680;BME280;63211;48.548;2.704;2023-08-07T01:52:44;101235.13;;;20.17;60.13
74680;BME280;63211;48.548;2.704;2023-08-07T01:55:12;101245.63;;;20.20;59.97
74680;BME280;63211;48.548;2.704;2023-08-07T01:57:39;101238.50;;;20.19;59.95
74680;BME280;63211;48.548;2.704;2023-08-07T02:00:06;101243.97;;;20.19;60.07
74680;BME280;63211;48.548;2.704;2023-08-07T02:02:33;101240.88;;;20.15;60.10
74680;BME280;63211;48.548;2.704;2023-08-07T02:05:00;101247.75;;;20.18;60.05
74680;BME280;63211;48.548;2.704;2023-08-07T02:07:27;101238.34;;;20.14;59.97
74680;BME280;63211;48.548;2.704;2023-08-07T02:09:53;101249.44;;;20.19;60.12
74680;BME280;63211;48.548;2.704;2023-08-07T02:12:21;101242.28;;;20.18;60.08
74680;BME280;63211;48.548;2.704;2023-08-07T02:14:48;101245.50;;;20.15;60.07
74680;BME280;63211;48.548;2.704;2023-08-07T02:17:14;101251.53;;;20.17;60.17
74680;BME280;63211;48.548;2.704;2023-08-07T02:19:41;101247.38;;;20.14;59.75
74680;BME280;63211;48.548;2.704;2023-08-07T02:22:07;101246.06;;;20.17;60.07
74680;BME280;63211;48.548;2.704;2023-08-07T02:24:34;101236.44;;;20.14;60.10
74680;BME280;63211;48.548;2.704;2023-08-07T02:27:00;101239.78;;;20.16;60.19
74680;BME280;63211;48.548;2.704;2023-08-07T02:29:28;101244.44;;;20.16;60.24
74680;BME280;63211;48.548;2.704;2023-08-07T02:31:55;101237.28;;;20.15;60.16
74680;BME280;63211;48.548;2.704;2023-08-07T02:34:21;101239.19;;;20.14;60.05
74680;BME280;63211;48.548;2.704;2023-08-07T02:36:48;101234.59;;;20.08;60.16
74680;BME280;63211;48.548;2.704;2023-08-07T02:39:15;101246.34;;;20.15;60.07
74680;BME280;63211;48.548;2.704;2023-08-07T02:41:41;101241.09;;;20.14;60.26
74680;BME280;63211;48.548;2.704;2023-08-07T02:44:08;101242.75;;;20.15;60.12
74680;BME280;63211;48.548;2.704;2023-08-07T02:46:36;101239.19;;;20.14;60.34
74680;BME280;63211;48.548;2.704;2023-08-07T02:49:02;101245.72;;;20.13;60.21
74680;BME280;63211;48.548;2.704;2023-08-07T02:51:30;101234.78;;;20.13;60.22
74680;BME280;63211;48.548;2.704;2023-08-07T02:53:56;101242.38;;;20.11;60.22
74680;BME280;63211;48.548;2.704;2023-08-07T02:56:23;101235.88;;;20.06;60.27
74680;BME280;63211;48.548;2.704;2023-08-07T02:58:49;101236.69;;;20.13;60.23
74680;BME280;63211;48.548;2.704;2023-08-07T03:01:16;101241.31;;;20.12;60.38
74680;BME280;63211;48.548;2.704;2023-08-07T03:03:44;101245.94;;;20.12;60.34
74680;BME280;63211;48.548;2.704;2023-08-07T03:06:11;101248.06;;;20.10;60.35
74680;BME280;63211;48.548;2.704;2023-08-07T03:08:37;101243.44;;;20.10;60.27
74680;BME280;63211;48.548;2.704;2023-08-07T03:11:04;101242.59;;;20.10;60.16
74680;BME280;63211;48.548;2.704;2023-08-07T03:13:30;101249.50;;;20.12;60.39
74680;BME280;63211;48.548;2.704;2023-08-07T03:16:00;101233.38;;;20.04;60.30
74680;BME280;63211;48.548;2.704;2023-08-07T03:18:27;101236.91;;;20.11;60.23
74680;BME280;63211;48.548;2.704;2023-08-07T03:20:55;101237.13;;;20.10;60.37
74680;BME280;63211;48.548;2.704;2023-08-07T03:23:22;101227.06;;;20.04;61.01
74680;BME280;63211;48.548;2.704;2023-08-07T03:25:49;101244.25;;;20.11;60.17
74680;BME280;63211;48.548;2.704;2023-08-07T03:28:15;101240.69;;;20.10;60.54
74680;BME280;63211;48.548;2.704;2023-08-07T03:30:42;101244.94;;;20.06;60.37
74680;BME280;63211;48.548;2.704;2023-08-07T03:33:09;101248.50;;;20.07;60.16
74680;BME280;63211;48.548;2.704;2023-08-07T03:35:36;101240.13;;;20.02;60.32
74680;BME280;63211;48.548;2.704;2023-08-07T03:38:04;101235.50;;;20.02;60.42
74680;BME280;63211;48.548;2.704;2023-08-07T03:40:30;101247.44;;;20.08;60.34
74680;BME280;63211;48.548;2.704;2023-08-07T03:42:57;101257.31;;;20.09;60.22
74680;BME280;63211;48.548;2.704;2023-08-07T03:45:24;101253.97;;;20.07;60.25
74680;BME280;63211;48.548;2.704;2023-08-07T03:47:50;101261.09;;;20.08;60.33
74680;BME280;63211;48.548;2.704;2023-08-07T03:50:17;101247.03;;;20.04;60.36
74680;BME280;63211;48.548;2.704;2023-08-07T03:52:43;101252.91;;;20.08;60.33
74680;BME280;63211;48.548;2.704;2023-08-07T03:55:11;101257.97;;;20.04;60.44
74680;BME280;63211;48.548;2.704;2023-08-07T03:57:38;101249.56;;;20.06;60.47
74680;BME280;63211;48.548;2.704;2023-08-07T04:00:06;101252.28;;;20.06;60.36
74680;BME280;63211;48.548;2.704;2023-08-07T04:02:32;101241.41;;;19.99;60.40
74680;BME280;63211;48.548;2.704;2023-08-07T04:04:59;101256.09;;;20.05;60.27
74680;BME280;63211;48.548;2.704;2023-08-07T04:07:26;101250.00;;;20.03;60.34
74680;BME280;63211;48.548;2.704;2023-08-07T04:09:52;101247.47;;;20.01;60.14
74680;BME280;63211;48.548;2.704;2023-08-07T04:12:20;101263.44;;;20.04;60.37
74680;BME280;63211;48.548;2.704;2023-08-07T04:14:47;101256.31;;;20.03;60.39
74680;BME280;63211;48.548;2.704;2023-08-07T04:17:13;101262.59;;;20.04;60.30
74680;BME280;63211;48.548;2.704;2023-08-07T04:19:40;101257.38;;;20.02;60.54
74680;BME280;63211;48.548;2.704;2023-08-07T04:22:07;101265.56;;;20.02;60.47
74680;BME280;63211;48.548;2.704;2023-08-07T04:24:33;101260.09;;;20.02;60.57
74680;BME280;63211;48.548;2.704;2023-08-07T04:27:00;101266.41;;;20.03;60.33
74680;BME280;63211;48.548;2.704;2023-08-07T04:29:28;101249.69;;;19.93;60.51
74680;BME280;63211;48.548;2.704;2023-08-07T04:31:54;101267.22;;;20.03;60.54
74680;BME280;63211;48.548;2.704;2023-08-07T04:34:21;101266.00;;;19.99;60.40
74680;BME280;63211;48.548;2.704;2023-08-07T04:36:47;101276.50;;;20.02;60.48
74680;BME280;63211;48.548;2.704;2023-08-07T04:39:15;101279.22;;;20.02;60.43
74680;BME280;63211;48.548;2.704;2023-08-07T04:41:43;101278.59;;;20.00;60.46
74680;BME280;63211;48.548;2.704;2023-08-07T04:44:10;101273.13;;;20.00;60.42
74680;BME280;63211;48.548;2.704;2023-08-07T04:46:38;101277.78;;;20.00;60.57
74680;BME280;63211;48.548;2.704;2023-08-07T04:49:06;101279.66;;;19.99;60.57
74680;BME280;63211;48.548;2.704;2023-08-07T04:51:33;101271.31;;;19.94;60.45
74680;BME280;63211;48.548;2.704;2023-08-07T04:53:59;101273.22;;;19.94;60.56
74680;BME280;63211;48.548;2.704;2023-08-07T04:56:26;101278.81;;;19.99;60.45
74680;BME280;63211;48.548;2.704;2023-08-07T04:58:52;101277.84;;;19.93;60.45
74680;BME280;63211;48.548;2.704;2023-08-07T05:01:19;101277.38;;;19.96;60.35
74680;BME280;63211;48.548;2.704;2023-08-07T05:03:47;101282.00;;;19.96;60.48
74680;BME280;63211;48.548;2.704;2023-08-07T05:06:14;101287.47;;;19.96;60.55
74680;BME280;63211;48.548;2.704;2023-08-07T05:08:40;101289.13;;;19.97;60.49
74680;BME280;63211;48.548;2.704;2023-08-07T05:11:07;101288.31;;;19.96;60.39
74680;BME280;63211;48.548;2.704;2023-08-07T05:13:33;101266.56;;;19.83;60.55
74680;BME280;63211;48.548;2.704;2023-08-07T05:16:00;101291.03;;;19.96;60.55
74680;BME280;63211;48.548;2.704;2023-08-07T05:18:26;101292.13;;;19.95;60.91
74680;BME280;63211;48.548;2.704;2023-08-07T05:20:54;101290.44;;;19.94;60.50
74680;BME280;63211;48.548;2.704;2023-08-07T05:23:21;101294.88;;;19.95;60.62
74680;BME280;63211;48.548;2.704;2023-08-07T05:25:48;101287.31;;;19.90;60.62
74680;BME280;63211;48.548;2.704;2023-08-07T05:28:14;101292.94;;;19.96;60.45
74680;BME280;63211;48.548;2.704;2023-08-07T05:30:41;101294.25;;;19.93;60.45
74680;BME280;63211;48.548;2.704;2023-08-07T05:33:07;101290.44;;;19.94;60.66
74680;BME280;63211;48.548;2.704;2023-08-07T05:35:34;101292.94;;;19.96;60.54
74680;BME280;63211;48.548;2.704;2023-08-07T05:38:02;101293.19;;;19.94;60.67
74680;BME280;63211;48.548;2.704;2023-08-07T05:40:29;101300.53;;;19.94;60.59
74680;BME280;63211;48.548;2.704;2023-08-07T05:42:56;101298.88;;;19.93;60.57
74680;BME280;63211;48.548;2.704;2023-08-07T05:45:22;101303.28;;;19.94;60.56
74680;BME280;63211;48.548;2.704;2023-08-07T05:47:49;101294.03;;;19.95;60.65
74680;BME280;63211;48.548;2.704;2023-08-07T05:50:16;101293.41;;;19.93;60.67
74680;BME280;63211;48.548;2.704;2023-08-07T05:52:42;101294.69;;;19.90;60.61
74680;BME280;63211;48.548;2.704;2023-08-07T05:55:10;101296.34;;;19.91;60.55
74680;BME280;63211;48.548;2.704;2023-08-07T05:57:37;101301.38;;;19.94;60.59
74680;BME280;63211;48.548;2.704;2023-08-07T06:00:04;101299.09;;;19.91;60.62
74680;BME280;63211;48.548;2.704;2023-08-07T06:02:31;101301.59;;;19.93;60.74
74680;BME280;63211;48.548;2.704;2023-08-07T06:04:58;101300.97;;;19.90;60.69
74680;BME280;63211;48.548;2.704;2023-08-07T06:07:25;101299.75;;;19.86;60.72
74680;BME280;63211;48.548;2.704;2023-08-07T06:09:52;101309.81;;;19.93;60.75
74680;BME280;63211;48.548;2.704;2023-08-07T06:12:19;101305.31;;;19.98;60.76
74680;BME280;63211;48.548;2.704;2023-08-07T06:14:46;101293.94;;;20.01;60.87
74680;BME280;63211;48.548;2.704;2023-08-07T06:17:13;101306.53;;;20.09;60.74
74680;BME280;63211;48.548;2.704;2023-08-07T06:19:39;101308.06;;;20.23;60.91
74680;BME280;63211;48.548;2.704;2023-08-07T06:22:06;101310.09;;;20.34;60.50
74680;BME280;63211;48.548;2.704;2023-08-07T06:24:32;101281.34;;;20.25;59.32
74680;BME280;63211;48.548;2.704;2023-08-07T06:26:59;101305.63;;;20.40;59.99
74680;BME280;63211;48.548;2.704;2023-08-07T06:29:27;101303.22;;;20.25;59.94
74680;BME280;63211;48.548;2.704;2023-08-07T06:31:54;101310.59;;;20.24;59.40
74680;BME280;63211;48.548;2.704;2023-08-07T06:34:20;101315.03;;;20.19;58.82
74680;BME280;63211;48.548;2.704;2023-08-07T06:36:47;101315.25;;;20.17;58.26
74680;BME280;63211;48.548;2.704;2023-08-07T06:39:13;101292.94;;;19.96;58.38
74680;BME280;63211;48.548;2.704;2023-08-07T06:41:40;101335.72;;;20.15;58.41
74680;BME280;63211;48.548;2.704;2023-08-07T06:44:06;101329.00;;;20.11;58.32
74680;BME280;63211;48.548;2.704;2023-08-07T06:46:34;101340.34;;;20.14;58.70
74680;BME280;63211;48.548;2.704;2023-08-07T06:49:01;101338.88;;;20.12;59.41
74680;BME280;63211;48.548;2.704;2023-08-07T06:51:27;101343.28;;;20.13;59.37
74680;BME280;63211;48.548;2.704;2023-08-07T06:53:54;101346.03;;;20.13;59.37
74680;BME280;63211;48.548;2.704;2023-08-07T06:56:21;101345.41;;;20.11;59.44
74680;BME280;63211;48.548;2.704;2023-08-07T06:58:47;101348.38;;;20.09;59.63
74680;BME280;63211;48.548;2.704;2023-08-07T07:01:14;101355.94;;;20.07;59.44
74680;BME280;63211;48.548;2.704;2023-08-07T07:03:42;101353.59;;;20.11;59.42
74680;BME280;63211;48.548;2.704;2023-08-07T07:06:10;101360.56;;;20.07;59.31
74680;BME280;63211;48.548;2.704;2023-08-07T07:08:37;101359.28;;;20.09;59.18
74680;BME280;63211;48.548;2.704;2023-08-07T07:11:03;101356.16;;;20.06;59.43
74680;BME280;63211;48.548;2.704;2023-08-07T07:13:30;101356.81;;;20.01;59.30
74680;BME280;63211;48.548;2.704;2023-08-07T07:15:57;101367.94;;;20.06;59.73
74680;BME280;63211;48.548;2.704;2023-08-07T07:18:23;101367.31;;;20.04;59.35
74680;BME280;63211;48.548;2.704;2023-08-07T07:20:58;101372.56;;;20.06;59.22
74680;BME280;63211;48.548;2.704;2023-08-07T07:23:25;101364.81;;;20.03;59.53
74680;BME280;63211;48.548;2.704;2023-08-07T07:25:52;101361.66;;;19.99;59.88
74680;BME280;63211;48.548;2.704;2023-08-07T07:28:18;101372.78;;;20.04;59.54
74680;BME280;63211;48.548;2.704;2023-08-07T07:30:45;101368.19;;;19.98;59.96
74680;BME280;63211;48.548;2.704;2023-08-07T07:33:11;101379.31;;;20.03;59.90
74680;BME280;63211;48.548;2.704;2023-08-07T07:35:39;101387.72;;;20.02;59.70
74680;BME280;63211;48.548;2.704;2023-08-07T07:38:07;101395.50;;;20.05;59.81
74680;BME280;63211;48.548;2.704;2023-08-07T07:40:34;101380.75;;;20.06;59.77
74680;BME280;63211;48.548;2.704;2023-08-07T07:43:01;101392.97;;;20.03;60.46
74680;BME280;63211;48.548;2.704;2023-08-07T07:45:27;101393.59;;;20.05;60.36
74680;BME280;63211;48.548;2.704;2023-08-07T07:47:54;101386.88;;;20.01;60.44
74680;BME280;63211;48.548;2.704;2023-08-07T07:50:21;101387.09;;;20.00;60.35
74680;BME280;63211;48.548;2.704;2023-08-07T07:52:48;101391.69;;;20.06;60.10
74680;BME280;63211;48.548;2.704;2023-08-07T07:55:16;101394.03;;;20.02;60.32
74680;BME280;63211;48.548;2.704;2023-08-07T07:57:43;101393.81;;;20.04;60.31
74680;BME280;63211;48.548;2.704;2023-08-07T08:00:10;101376.59;;;19.97;60.23
74680;BME280;63211;48.548;2.704;2023-08-07T08:02:38;101375.75;;;19.96;60.28
74680;BME280;63211;48.548;2.704;2023-08-07T08:05:07;101385.63;;;20.04;60.24
74680;BME280;63211;48.548;2.704;2023-08-07T08:07:34;101381.41;;;20.01;60.18
74680;BME280;63211;48.548;2.704;2023-08-07T08:10:01;101396.94;;;20.07;60.17
74680;BME280;63211;48.548;2.704;2023-08-07T08:12:30;101390.22;;;20.10;60.05
74680;BME280;63211;48.548;2.704;2023-08-07T08:14:56;101396.94;;;20.07;60.11
74680;BME280;63211;48.548;2.704;2023-08-07T08:17:23;101401.19;;;20.03;60.05
74680;BME280;63211;48.548;2.704;2023-08-07T08:19:49;101413.34;;;20.07;60.04
74680;BME280;63211;48.548;2.704;2023-08-07T08:22:16;101414.59;;;20.11;60.02
74680;BME280;63211;48.548;2.704;2023-08-07T08:24:43;101413.75;;;20.11;60.07
74680;BME280;63211;48.548;2.704;2023-08-07T08:27:09;101412.25;;;20.15;59.99
74680;BME280;63211;48.548;2.704;2023-08-07T08:29:37;101415.38;;;20.18;59.91
74680;BME280;63211;48.548;2.704;2023-08-07T08:32:04;101416.81;;;20.21;59.59
74680;BME280;63211;48.548;2.704;2023-08-07T08:34:31;101407.78;;;20.20;59.98
74680;BME280;63211;48.548;2.704;2023-08-07T08:36:58;101417.44;;;20.23;59.92
74680;BME280;63211;48.548;2.704;2023-08-07T08:39:24;101415.34;;;20.25;59.46
74680;BME280;63211;48.548;2.704;2023-08-07T08:41:51;101405.88;;;20.21;59.60
74680;BME280;63211;48.548;2.704;2023-08-07T08:44:19;101406.91;;;20.27;59.56
74680;BME280;63211;48.548;2.704;2023-08-07T08:46:49;101404.19;;;20.27;59.59
74680;BME280;63211;48.548;2.704;2023-08-07T08:49:23;101404.59;;;20.30;59.68
74680;BME280;63211;48.548;2.704;2023-08-07T08:51:54;101407.94;;;20.32;59.65
74680;BME280;63211;48.548;2.704;2023-08-07T08:54:21;101393.84;;;20.29;59.62
74680;BME280;63211;48.548;2.704;2023-08-07T08:56:48;101416.31;;;20.37;59.57
74680;BME280;63211;48.548;2.704;2023-08-07T08:59:15;101416.09;;;20.39;59.28
74680;BME280;63211;48.548;2.704;2023-08-07T09:01:43;101421.53;;;20.45;59.51
74680;BME280;63211;48.548;2.704;2023-08-07T09:04:12;101408.69;;;20.46;59.44
74680;BME280;63211;48.548;2.704;2023-08-07T09:06:38;101411.00;;;20.49;59.30
74680;BME280;63211;48.548;2.704;2023-08-07T09:09:06;101395.19;;;20.51;59.39
74680;BME280;63211;48.548;2.704;2023-08-07T09:11:35;101399.38;;;20.53;59.51
74680;BME280;63211;48.548;2.704;2023-08-07T09:14:02;101406.75;;;20.53;59.47
74680;BME280;63211;48.548;2.704;2023-08-07T09:16:30;101405.25;;;20.57;59.32
74680;BME280;63211;48.548;2.704;2023-08-07T09:18:57;101404.03;;;20.53;59.54
74680;BME280;63211;48.548;2.704;2023-08-07T09:21:25;101399.16;;;20.55;59.47
74680;BME280;63211;48.548;2.704;2023-08-07T09:23:53;101400.38;;;20.59;59.37
74680;BME280;63211;48.548;2.704;2023-08-07T09:26:21;101398.47;;;20.59;59.60
74680;BME280;63211;48.548;2.704;2023-08-07T09:28:51;101395.28;;;20.63;59.42
74680;BME280;63211;48.548;2.704;2023-08-07T09:31:17;101407.28;;;20.62;59.36
74680;BME280;63211;48.548;2.704;2023-08-07T09:33:46;101412.94;;;20.67;59.14
74680;BME280;63211;48.548;2.704;2023-08-07T09:36:13;101399.25;;;20.67;59.27
74680;BME280;63211;48.548;2.704;2023-08-07T09:38:41;101411.03;;;20.67;59.46
74680;BME280;63211;48.548;2.704;2023-08-07T09:41:08;101414.00;;;20.66;59.39
74680;BME280;63211;48.548;2.704;2023-08-07T09:43:34;101397.41;;;20.61;59.04
74680;BME280;63211;48.548;2.704;2023-08-07T09:46:02;101403.28;;;20.64;59.26
74680;BME280;63211;48.548;2.704;2023-08-07T09:48:29;101405.13;;;20.70;59.38
74680;BME280;63211;48.548;2.704;2023-08-07T09:50:58;101406.81;;;20.71;59.37
74680;BME280;63211;48.548;2.704;2023-08-07T09:53:25;101410.16;;;20.73;59.27
74680;BME280;63211;48.548;2.704;2023-08-07T09:55:54;101408.47;;;20.72;59.33
74680;BME280;63211;48.548;2.704;2023-08-07T09:58:23;101410.16;;;20.73;59.31
74680;BME280;63211;48.548;2.704;2023-08-07T10:00:50;101401.13;;;20.73;59.33
74680;BME280;63211;48.548;2.704;2023-08-07T10:03:19;101396.47;;;20.73;59.24
74680;BME280;63211;48.548;2.704;2023-08-07T10:05:45;101402.56;;;20.75;59.30
74680;BME280;63211;48.548;2.704;2023-08-07T10:08:12;101405.09;;;20.77;59.37
74680;BME280;63211;48.548;2.704;2023-08-07T10:10:39;101396.88;;;20.77;59.41
74680;BME280;63211;48.548;2.704;2023-08-07T10:13:07;101400.44;;;20.77;59.32
74680;BME280;63211;48.548;2.704;2023-08-07T10:15:34;101395.81;;;20.78;59.50
74680;BME280;63211;48.548;2.704;2023-08-07T10:18:01;101390.78;;;20.75;59.42
74680;BME280;63211;48.548;2.704;2023-08-07T10:20:29;101393.06;;;20.78;59.38
74680;BME280;63211;48.548;2.704;2023-08-07T10:23:00;101391.97;;;20.79;59.39
74680;BME280;63211;48.548;2.704;2023-08-07T10:25:27;101393.28;;;20.76;59.34
74680;BME280;63211;48.548;2.704;2023-08-07T10:27:56;101397.22;;;20.80;59.60
74680;BME280;63211;48.548;2.704;2023-08-07T10:30:27;101400.81;;;20.81;59.35
74680;BME280;63211;48.548;2.704;2023-08-07T10:32:56;101391.19;;;20.78;59.53
74680;BME280;63211;48.548;2.704;2023-08-07T10:35:24;101380.22;;;20.78;59.54
74680;BME280;63211;48.548;2.704;2023-08-07T10:37:52;101374.28;;;20.81;59.36
74680;BME280;63211;48.548;2.704;2023-08-07T10:40:19;101379.75;;;20.81;59.55
74680;BME280;63211;48.548;2.704;2023-08-07T10:42:52;101383.78;;;20.79;59.58
74680;BME280;63211;48.548;2.704;2023-08-07T10:45:19;101377.50;;;20.78;59.45
74680;BME280;63211;48.548;2.704;2023-08-07T10:48:01;101395.81;;;20.78;59.57
74680;BME280;63211;48.548;2.704;2023-08-07T10:50:29;101394.72;;;20.79;59.51
74680;BME280;63211;48.548;2.704;2023-08-07T10:52:56;101387.97;;;20.81;59.63
74680;BME280;63211;48.548;2.704;2023-08-07T10:55:23;101388.19;;;20.80;59.75
74680;BME280;63211;48.548;2.704;2023-08-07T10:57:50;101380.22;;;20.78;59.65
74680;BME280;63211;48.548;2.704;2023-08-07T11:00:17;101356.75;;;20.64;59.69
74680;BME280;63211;48.548;2.704;2023-08-07T11:02:48;101348.78;;;20.63;59.83
74680;BME280;63211;48.548;2.704;2023-08-07T11:05:17;101390.09;;;20.79;59.70
74680;BME280;63211;48.548;2.704;2023-08-07T11:07:45;101372.25;;;20.77;59.49
74680;BME280;63211;48.548;2.704;2023-08-07T11:10:13;101378.06;;;20.80;59.61
74680;BME280;63211;48.548;2.704;2023-08-07T11:12:40;101373.91;;;20.78;59.58
74680;BME280;63211;48.548;2.704;2023-08-07T11:15:12;101373.91;;;20.78;59.46
74680;BME280;63211;48.548;2.704;2023-08-07T11:17:39;101366.78;;;20.77;59.51
74680;BME280;63211;48.548;2.704;2023-08-07T11:20:07;101379.13;;;20.79;59.57
74680;BME280;63211;48.548;2.704;2023-08-07T11:22:37;101367.22;;;20.74;59.59
74680;BME280;63211;48.548;2.704;2023-08-07T11:25:05;101369.63;;;20.82;59.52
74680;BME280;63211;48.548;2.704;2023-08-07T11:27:36;101365.22;;;20.81;59.71
74680;BME280;63211;48.548;2.704;2023-08-07T11:30:03;101372.38;;;20.82;59.52
74680;BME280;63211;48.548;2.704;2023-08-07T11:32:31;101358.34;;;20.78;59.83
74680;BME280;63211;48.548;2.704;2023-08-07T11:34:57;101363.34;;;20.81;59.71
74680;BME280;63211;48.548;2.704;2023-08-07T11:37:24;101359.75;;;20.81;59.61
74680;BME280;63211;48.548;2.704;2023-08-07T11:39:52;101353.91;;;20.77;59.58
74680;BME280;63211;48.548;2.704;2023-08-07T11:42:21;101363.94;;;20.83;59.68
74680;BME280;63211;48.548;2.704;2023-08-07T11:44:48;101354.91;;;20.83;59.69
74680;BME280;63211;48.548;2.704;2023-08-07T11:47:15;101351.53;;;20.81;59.57
74680;BME280;63211;48.548;2.704;2023-08-07T11:49:42;101346.91;;;20.81;59.55
74680;BME280;63211;48.548;2.704;2023-08-07T11:52:09;101352.16;;;20.83;59.78
74680;BME280;63211;48.548;2.704;2023-08-07T11:54:36;101346.91;;;20.81;59.99
74680;BME280;63211;48.548;2.704;2023-08-07T11:57:15;101348.34;;;20.84;59.58
74680;BME280;63211;48.548;2.704;2023-08-07T11:59:41;101323.81;;;20.77;59.84
74680;BME280;63211;48.548;2.704;2023-08-07T12:02:09;101336.81;;;20.82;59.60
74680;BME280;63211;48.548;2.704;2023-08-07T12:04:36;101321.91;;;20.78;59.60
74680;BME280;63211;48.548;2.704;2023-08-07T12:07:03;101327.75;;;20.81;59.70
74680;BME280;63211;48.548;2.704;2023-08-07T12:09:30;101339.31;;;20.83;59.77
74680;BME280;63211;48.548;2.704;2023-08-07T12:11:57;101335.75;;;20.83;59.81
74680;BME280;63211;48.548;2.704;2023-08-07T12:14:28;101337.63;;;20.82;59.81
74680;BME280;63211;48.548;2.704;2023-08-07T12:16:55;101330.25;;;20.83;59.75
74680;BME280;63211;48.548;2.704;2023-08-07T12:19:22;101317.28;;;20.78;59.96
74680;BME280;63211;48.548;2.704;2023-08-07T12:21:48;101318.47;;;20.82;59.56
74680;BME280;63211;48.548;2.704;2023-08-07T12:24:15;101318.47;;;20.82;59.76
74680;BME280;63211;48.548;2.704;2023-08-07T12:26:41;101318.47;;;20.82;59.58
74680;BME280;63211;48.548;2.704;2023-08-07T12:29:08;101307.53;;;20.82;59.79
74680;BME280;63211;48.548;2.704;2023-08-07T12:31:36;101311.94;;;20.83;59.71
74680;BME280;63211;48.548;2.704;2023-08-07T12:34:02;101300.38;;;20.81;59.52
74680;BME280;63211;48.548;2.704;2023-08-07T12:36:29;101304.78;;;20.82;59.75
74680;BME280;63211;48.548;2.704;2023-08-07T12:38:56;101309.19;;;20.83;59.57
74680;BME280;63211;48.548;2.704;2023-08-07T12:41:23;101314.69;;;20.83;59.68
74680;BME280;63211;48.548;2.704;2023-08-07T12:43:49;101301.84;;;20.84;59.60
74680;BME280;63211;48.548;2.704;2023-08-07T12:46:16;101305.63;;;20.83;59.67
74680;BME280;63211;48.548;2.704;2023-08-07T12:48:44;101302.06;;;20.82;59.73
74680;BME280;63211;48.548;2.704;2023-08-07T12:51:11;101299.31;;;20.82;59.65